VXP400 KHVN-KDTW
Flight info
| Callsign | VXP400 |
|---|---|
| Flight time | N/A |
| Altitude | 36000 |
| Route | JUDDS CTR CAM Q822 GONZZ DONEO TPGUN2 |
| Aircraft | B738/M-SDE2E3FGHIRWXY/LB1 |
Departure
| Time | 2026-05-07 17:42 |
|---|---|
| Airport | Tweed New Haven Airport (KHVN) |
Arrival
| Time | N/A |
|---|---|
| Airport | Detroit Metropolitan Wayne County Airport (KDTW) |
| Time | Latitude | Longitude | Altitude | Speed | Heading |
|---|---|---|---|---|---|
| 2026-05-07 17:22 | 41.26857 | -72.89076 | 16 ft | 0 kts | 311° |
| 2026-05-07 17:32 | 41.26845 | -72.89059 | 16 ft | 4 kts | 311° |
| 2026-05-07 17:32 | 41.26828 | -72.89033 | 16 ft | 4 kts | 309° |
| 2026-05-07 17:32 | 41.26812 | -72.89005 | 16 ft | 4 kts | 301° |
| 2026-05-07 17:33 | 41.26803 | -72.88985 | 18 ft | 0 kts | 297° |
| 2026-05-07 17:35 | 41.26803 | -72.88995 | 16 ft | 3 kts | 278° |
| 2026-05-07 17:36 | 41.26811 | -72.89000 | 16 ft | 2 kts | 352° |
| 2026-05-07 17:36 | 41.26815 | -72.88990 | 19 ft | 1 kts | 83° |
| 2026-05-07 17:36 | 41.26811 | -72.88986 | 18 ft | 1 kts | 133° |
| 2026-05-07 17:36 | 41.26795 | -72.88969 | 18 ft | 6 kts | 141° |
| 2026-05-07 17:37 | 41.26757 | -72.88915 | 18 ft | 9 kts | 131° |
| 2026-05-07 17:37 | 41.26717 | -72.88856 | 16 ft | 8 kts | 132° |
| 2026-05-07 17:37 | 41.26678 | -72.88798 | 14 ft | 9 kts | 132° |
| 2026-05-07 17:37 | 41.26638 | -72.88740 | 15 ft | 8 kts | 132° |
| 2026-05-07 17:38 | 41.26597 | -72.88679 | 17 ft | 11 kts | 131° |
| 2026-05-07 17:38 | 41.26532 | -72.88582 | 16 ft | 15 kts | 132° |
| 2026-05-07 17:38 | 41.26464 | -72.88482 | 16 ft | 11 kts | 132° |
| 2026-05-07 17:38 | 41.26421 | -72.88459 | 16 ft | 7 kts | 213° |
| 2026-05-07 17:39 | 41.26384 | -72.88496 | 16 ft | 8 kts | 218° |
| 2026-05-07 17:39 | 41.26333 | -72.88547 | 17 ft | 10 kts | 216° |
| 2026-05-07 17:39 | 41.26258 | -72.88609 | 16 ft | 15 kts | 195° |
| 2026-05-07 17:39 | 41.26160 | -72.88633 | 16 ft | 14 kts | 190° |
| 2026-05-07 17:40 | 41.26064 | -72.88656 | 16 ft | 14 kts | 189° |
| 2026-05-07 17:40 | 41.25971 | -72.88677 | 16 ft | 14 kts | 189° |
| 2026-05-07 17:40 | 41.25870 | -72.88701 | 16 ft | 16 kts | 190° |
| 2026-05-07 17:40 | 41.25754 | -72.88714 | 16 ft | 16 kts | 182° |
| 2026-05-07 17:41 | 41.25653 | -72.88721 | 16 ft | 13 kts | 183° |
| 2026-05-07 17:41 | 41.25610 | -72.88762 | 15 ft | 8 kts | 262° |
| 2026-05-07 17:41 | 41.25619 | -72.88819 | 16 ft | 6 kts | 323° |
| 2026-05-07 17:41 | 41.25643 | -72.88823 | 16 ft | 0 kts | 3° |
| 2026-05-07 17:42 | 41.25877 | -72.88806 | 18 ft | 77 kts | 2° |
| 2026-05-07 17:42 | 41.26680 | -72.88755 | 16 ft | 152 kts | 2° |
| 2026-05-07 17:42 | 41.27808 | -72.88679 | 788 ft | 163 kts | 2° |
| 2026-05-07 17:43 | 41.28942 | -72.88622 | 1948 ft | 167 kts | 359° |
| 2026-05-07 17:43 | 41.30196 | -72.88599 | 2529 ft | 192 kts | 359° |
| 2026-05-07 17:43 | 41.31622 | -72.88592 | 2812 ft | 218 kts | 358° |
| 2026-05-07 17:43 | 41.33178 | -72.88593 | 3414 ft | 226 kts | 358° |
| 2026-05-07 17:44 | 41.34808 | -72.88586 | 3858 ft | 244 kts | 358° |
| 2026-05-07 17:44 | 41.36443 | -72.89097 | 4499 ft | 250 kts | 330° |
| 2026-05-07 17:44 | 41.37933 | -72.90315 | 5467 ft | 249 kts | 327° |
| 2026-05-07 17:44 | 41.39418 | -72.91531 | 6442 ft | 249 kts | 326° |
| 2026-05-07 17:45 | 41.40877 | -72.92715 | 7301 ft | 252 kts | 323° |
| 2026-05-07 17:45 | 41.42396 | -72.93944 | 8020 ft | 258 kts | 322° |
| 2026-05-07 17:45 | 41.43943 | -72.95189 | 8787 ft | 261 kts | 321° |
| 2026-05-07 17:45 | 41.45511 | -72.96443 | 9587 ft | 264 kts | 320° |
| 2026-05-07 17:46 | 41.47077 | -72.97692 | 9956 ft | 264 kts | 319° |
| 2026-05-07 17:46 | 41.48681 | -72.98976 | 10002 ft | 271 kts | 320° |
| 2026-05-07 17:46 | 41.50312 | -73.00277 | 10084 ft | 278 kts | 320° |
| 2026-05-07 17:46 | 41.52039 | -73.01665 | 10261 ft | 302 kts | 320° |
| 2026-05-07 17:47 | 41.53907 | -73.03163 | 10443 ft | 326 kts | 321° |
| 2026-05-07 17:47 | 41.55922 | -73.04771 | 10609 ft | 348 kts | 321° |
| 2026-05-07 17:47 | 41.58059 | -73.06474 | 10839 ft | 366 kts | 321° |
| 2026-05-07 17:47 | 41.60272 | -73.08233 | 11346 ft | 374 kts | 322° |
| 2026-05-07 17:48 | 41.62711 | -73.09642 | 11932 ft | 393 kts | 336° |
| 2026-05-07 17:48 | 41.65475 | -73.10214 | 12539 ft | 412 kts | 351° |
| 2026-05-07 17:48 | 41.68392 | -73.09876 | 13125 ft | 428 kts | 1° |
| 2026-05-07 17:48 | 41.71349 | -73.09175 | 13643 ft | 436 kts | 4° |
| 2026-05-07 17:49 | 41.74349 | -73.08389 | 14148 ft | 441 kts | 4° |
| 2026-05-07 17:49 | 41.77360 | -73.07588 | 14756 ft | 443 kts | 4° |
| 2026-05-07 17:49 | 41.80398 | -73.06797 | 15316 ft | 446 kts | 3° |
| 2026-05-07 17:49 | 41.83457 | -73.06024 | 15839 ft | 449 kts | 3° |
| 2026-05-07 17:50 | 41.86537 | -73.05263 | 16401 ft | 451 kts | 3° |
| 2026-05-07 17:50 | 41.89643 | -73.04506 | 16950 ft | 454 kts | 3° |
| 2026-05-07 17:50 | 41.92768 | -73.03750 | 17453 ft | 458 kts | 2° |
| 2026-05-07 17:50 | 41.95887 | -73.02998 | 17925 ft | 463 kts | 2° |
| 2026-05-07 17:51 | 41.99066 | -73.02230 | 18378 ft | 466 kts | 2° |
| 2026-05-07 17:51 | 42.02271 | -73.01453 | 18810 ft | 469 kts | 2° |
| 2026-05-07 17:51 | 42.05492 | -73.00670 | 19233 ft | 472 kts | 2° |
| 2026-05-07 17:51 | 42.08737 | -72.99880 | 19645 ft | 475 kts | 2° |
| 2026-05-07 17:52 | 42.12003 | -72.99085 | 20060 ft | 479 kts | 1° |
| 2026-05-07 17:52 | 42.15289 | -72.98281 | 20482 ft | 481 kts | 1° |
| 2026-05-07 17:52 | 42.18595 | -72.97473 | 20882 ft | 484 kts | 1° |
| 2026-05-07 17:52 | 42.21923 | -72.96661 | 21243 ft | 488 kts | 1° |
| 2026-05-07 17:53 | 42.25267 | -72.95942 | 21583 ft | 483 kts | 355° |
| 2026-05-07 17:53 | 42.28593 | -72.95922 | 21886 ft | 473 kts | 344° |
| 2026-05-07 17:53 | 42.31802 | -72.96601 | 22356 ft | 461 kts | 336° |
| 2026-05-07 17:53 | 42.34813 | -72.97881 | 22807 ft | 448 kts | 326° |
| 2026-05-07 17:54 | 42.37681 | -72.99515 | 23229 ft | 447 kts | 325° |
| 2026-05-07 17:54 | 42.40543 | -73.01167 | 23564 ft | 449 kts | 325° |
| 2026-05-07 17:54 | 42.43435 | -73.02830 | 23793 ft | 453 kts | 325° |
| 2026-05-07 17:54 | 42.46346 | -73.04489 | 24081 ft | 455 kts | 325° |
| 2026-05-07 17:55 | 42.49272 | -73.06139 | 24400 ft | 456 kts | 325° |
| 2026-05-07 17:55 | 42.52213 | -73.07788 | 24705 ft | 458 kts | 325° |
| 2026-05-07 17:55 | 42.55163 | -73.09440 | 24991 ft | 460 kts | 324° |
| 2026-05-07 17:55 | 42.58133 | -73.11104 | 25207 ft | 463 kts | 325° |
| 2026-05-07 17:56 | 42.61115 | -73.12776 | 25487 ft | 465 kts | 324° |
| 2026-05-07 17:56 | 42.64106 | -73.14452 | 25786 ft | 466 kts | 324° |
| 2026-05-07 17:56 | 42.67102 | -73.16133 | 26061 ft | 467 kts | 324° |
| 2026-05-07 17:56 | 42.70107 | -73.17821 | 26367 ft | 467 kts | 324° |
| 2026-05-07 17:57 | 42.73106 | -73.19508 | 26747 ft | 465 kts | 324° |
| 2026-05-07 17:57 | 42.75081 | -73.20619 | 27012 ft | 464 kts | 324° |
| 2026-05-07 17:57 | 42.79064 | -73.22866 | 27537 ft | 462 kts | 324° |
| 2026-05-07 17:57 | 42.81989 | -73.24520 | 27885 ft | 461 kts | 324° |
| 2026-05-07 17:58 | 42.84951 | -73.26197 | 28292 ft | 459 kts | 324° |
| 2026-05-07 17:58 | 42.87892 | -73.27862 | 28703 ft | 458 kts | 324° |
| 2026-05-07 17:58 | 42.89879 | -73.28989 | 28932 ft | 458 kts | 324° |
| 2026-05-07 17:58 | 42.93728 | -73.31284 | 29314 ft | 447 kts | 317° |
| 2026-05-07 17:59 | 42.94610 | -73.32040 | 29397 ft | 436 kts | 311° |
| 2026-05-07 17:59 | 42.97764 | -73.36881 | 30015 ft | 397 kts | 290° |
| 2026-05-07 17:59 | 42.98944 | -73.40223 | 30307 ft | 385 kts | 282° |
| 2026-05-07 17:59 | 42.99633 | -73.43708 | 30522 ft | 376 kts | 272° |
| 2026-05-07 18:00 | 42.99806 | -73.47244 | 30758 ft | 372 kts | 267° |
| 2026-05-07 18:00 | 42.99883 | -73.50766 | 31021 ft | 371 kts | 267° |
| 2026-05-07 18:00 | 42.99946 | -73.54291 | 31288 ft | 371 kts | 266° |
| 2026-05-07 18:00 | 43.00010 | -73.57807 | 31553 ft | 371 kts | 267° |
| 2026-05-07 18:01 | 43.00079 | -73.61331 | 31804 ft | 371 kts | 267° |
| 2026-05-07 18:01 | 43.00151 | -73.64843 | 32075 ft | 370 kts | 266° |
| 2026-05-07 18:01 | 43.00222 | -73.68360 | 32277 ft | 370 kts | 267° |
| 2026-05-07 18:01 | 43.00299 | -73.71830 | 32509 ft | 370 kts | 267° |
| 2026-05-07 18:02 | 43.00460 | -73.78853 | 32999 ft | 370 kts | 267° |
| 2026-05-07 18:02 | 43.00538 | -73.82370 | 33197 ft | 370 kts | 267° |
| 2026-05-07 18:02 | 43.00616 | -73.85887 | 33446 ft | 370 kts | 267° |
| 2026-05-07 18:03 | 43.00691 | -73.89394 | 33698 ft | 369 kts | 267° |
| 2026-05-07 18:03 | 43.00765 | -73.92901 | 33899 ft | 370 kts | 267° |
| 2026-05-07 18:03 | 43.00838 | -73.96414 | 34053 ft | 370 kts | 267° |
| 2026-05-07 18:03 | 43.00910 | -73.99929 | 34187 ft | 371 kts | 267° |
| 2026-05-07 18:04 | 43.00957 | -74.02275 | 34286 ft | 371 kts | 267° |
| 2026-05-07 18:04 | 43.01028 | -74.05795 | 34446 ft | 372 kts | 267° |
| 2026-05-07 18:04 | 43.01097 | -74.09331 | 34591 ft | 372 kts | 267° |
| 2026-05-07 18:04 | 43.01166 | -74.12873 | 34734 ft | 373 kts | 267° |
| 2026-05-07 18:05 | 43.01234 | -74.16417 | 34885 ft | 374 kts | 267° |
| 2026-05-07 18:05 | 43.01366 | -74.23566 | 35065 ft | 377 kts | 267° |
| 2026-05-07 18:05 | 43.01444 | -74.27154 | 35175 ft | 378 kts | 268° |
| 2026-05-07 18:06 | 43.01584 | -74.30741 | 35319 ft | 379 kts | 269° |
| 2026-05-07 18:06 | 43.01755 | -74.34340 | 35450 ft | 380 kts | 269° |
| 2026-05-07 18:06 | 43.01931 | -74.37901 | 35579 ft | 380 kts | 269° |
| 2026-05-07 18:06 | 43.02106 | -74.41504 | 35695 ft | 380 kts | 269° |
| 2026-05-07 18:07 | 43.02275 | -74.45115 | 35830 ft | 381 kts | 269° |
| 2026-05-07 18:07 | 43.02602 | -74.52351 | 35915 ft | 382 kts | 269° |
| 2026-05-07 18:08 | 43.02918 | -74.59614 | 35929 ft | 383 kts | 269° |
| 2026-05-07 18:08 | 43.03228 | -74.66884 | 35929 ft | 383 kts | 269° |
| 2026-05-07 18:09 | 43.03533 | -74.74158 | 35933 ft | 383 kts | 269° |
| 2026-05-07 18:09 | 43.03832 | -74.81398 | 35942 ft | 384 kts | 269° |
| 2026-05-07 18:10 | 43.04125 | -74.88673 | 35940 ft | 384 kts | 269° |
| 2026-05-07 18:10 | 43.04418 | -74.95957 | 35939 ft | 384 kts | 269° |
| 2026-05-07 18:11 | 43.04707 | -75.03250 | 35940 ft | 384 kts | 268° |
| 2026-05-07 18:11 | 43.04990 | -75.10537 | 35939 ft | 384 kts | 268° |
| 2026-05-07 18:12 | 43.05268 | -75.17828 | 35941 ft | 384 kts | 268° |
| 2026-05-07 18:12 | 43.05542 | -75.25122 | 35944 ft | 384 kts | 268° |
| 2026-05-07 18:13 | 43.05801 | -75.32413 | 35940 ft | 384 kts | 268° |
| 2026-05-07 18:13 | 43.06006 | -75.39709 | 35948 ft | 384 kts | 268° |
| 2026-05-07 18:14 | 43.06201 | -75.46999 | 35944 ft | 384 kts | 268° |
| 2026-05-07 18:14 | 43.06396 | -75.54294 | 35948 ft | 384 kts | 268° |
| 2026-05-07 18:15 | 43.06589 | -75.61598 | 35938 ft | 384 kts | 268° |
| 2026-05-07 18:15 | 43.06778 | -75.68911 | 35936 ft | 385 kts | 268° |
| 2026-05-07 18:16 | 43.06962 | -75.76186 | 35948 ft | 385 kts | 268° |
| 2026-05-07 18:16 | 43.07143 | -75.83512 | 35943 ft | 385 kts | 268° |
| 2026-05-07 18:17 | 43.07318 | -75.90818 | 35944 ft | 385 kts | 268° |
| 2026-05-07 18:17 | 43.07489 | -75.98150 | 35949 ft | 386 kts | 268° |
| 2026-05-07 18:18 | 43.07656 | -76.05492 | 35948 ft | 386 kts | 268° |
| 2026-05-07 18:18 | 43.07819 | -76.12854 | 35943 ft | 387 kts | 268° |
| 2026-05-07 18:19 | 43.07977 | -76.20219 | 35947 ft | 387 kts | 268° |
| 2026-05-07 18:19 | 43.08130 | -76.27594 | 35945 ft | 388 kts | 268° |
| 2026-05-07 18:20 | 43.08279 | -76.34972 | 35948 ft | 388 kts | 268° |
| 2026-05-07 18:20 | 43.08423 | -76.42321 | 35949 ft | 389 kts | 268° |
| 2026-05-07 18:21 | 43.08563 | -76.49717 | 35954 ft | 389 kts | 268° |
| 2026-05-07 18:21 | 43.08698 | -76.57122 | 35951 ft | 390 kts | 268° |
| 2026-05-07 18:22 | 43.08829 | -76.64542 | 35950 ft | 390 kts | 268° |
| 2026-05-07 18:22 | 43.08665 | -76.71934 | 35951 ft | 387 kts | 261° |
| 2026-05-07 18:23 | 43.08009 | -76.79248 | 35950 ft | 388 kts | 261° |
| 2026-05-07 18:23 | 43.07348 | -76.86576 | 35952 ft | 388 kts | 261° |
| 2026-05-07 18:24 | 43.06698 | -76.93860 | 35952 ft | 389 kts | 261° |
| 2026-05-07 18:24 | 43.06043 | -77.01201 | 35960 ft | 389 kts | 261° |
| 2026-05-07 18:25 | 43.05386 | -77.08541 | 35966 ft | 389 kts | 261° |
| 2026-05-07 18:25 | 43.04723 | -77.15882 | 35937 ft | 389 kts | 261° |
| 2026-05-07 18:26 | 43.04057 | -77.23223 | 35942 ft | 389 kts | 261° |
| 2026-05-07 18:26 | 43.03383 | -77.30578 | 35939 ft | 390 kts | 261° |
| 2026-05-07 18:27 | 43.02706 | -77.37924 | 35935 ft | 390 kts | 261° |
| 2026-05-07 18:27 | 43.02023 | -77.45280 | 35944 ft | 390 kts | 261° |
| 2026-05-07 18:28 | 43.01336 | -77.52631 | 35936 ft | 390 kts | 261° |
| 2026-05-07 18:28 | 43.00648 | -77.59938 | 35939 ft | 390 kts | 261° |
| 2026-05-07 18:29 | 42.99950 | -77.67294 | 35936 ft | 391 kts | 261° |
| 2026-05-07 18:29 | 42.99247 | -77.74656 | 35940 ft | 391 kts | 261° |
| 2026-05-07 18:30 | 42.98539 | -77.82014 | 35943 ft | 391 kts | 261° |
| 2026-05-07 18:30 | 42.97828 | -77.89368 | 35937 ft | 391 kts | 261° |
| 2026-05-07 18:31 | 42.97111 | -77.96722 | 35937 ft | 390 kts | 261° |
| 2026-05-07 18:31 | 42.96390 | -78.04069 | 35935 ft | 390 kts | 261° |
| 2026-05-07 18:32 | 42.95663 | -78.11423 | 35936 ft | 390 kts | 261° |
| 2026-05-07 18:32 | 42.94933 | -78.18764 | 35937 ft | 390 kts | 261° |
| 2026-05-07 18:33 | 42.94202 | -78.26060 | 35936 ft | 391 kts | 261° |
| 2026-05-07 18:33 | 42.93461 | -78.33415 | 35937 ft | 391 kts | 261° |
| 2026-05-07 18:34 | 42.92715 | -78.40769 | 35933 ft | 391 kts | 261° |
| 2026-05-07 18:34 | 42.91964 | -78.48118 | 35944 ft | 391 kts | 261° |
| 2026-05-07 18:35 | 42.91208 | -78.55477 | 35934 ft | 392 kts | 261° |
| 2026-05-07 18:35 | 42.90447 | -78.62829 | 35933 ft | 391 kts | 261° |
| 2026-05-07 18:36 | 42.89683 | -78.70173 | 35932 ft | 391 kts | 261° |
| 2026-05-07 18:36 | 42.88913 | -78.77518 | 35935 ft | 391 kts | 261° |
| 2026-05-07 18:37 | 42.88140 | -78.84851 | 35941 ft | 391 kts | 261° |
| 2026-05-07 18:37 | 42.87367 | -78.92134 | 35934 ft | 391 kts | 261° |
| 2026-05-07 18:38 | 42.86584 | -78.99466 | 35942 ft | 390 kts | 261° |
| 2026-05-07 18:38 | 42.85798 | -79.06784 | 35947 ft | 390 kts | 261° |
| 2026-05-07 18:39 | 42.85007 | -79.14104 | 35950 ft | 390 kts | 261° |
| 2026-05-07 18:39 | 42.84211 | -79.21422 | 35955 ft | 390 kts | 261° |
| 2026-05-07 18:40 | 42.83409 | -79.28747 | 35956 ft | 390 kts | 261° |
| 2026-05-07 18:40 | 42.82604 | -79.36063 | 35955 ft | 391 kts | 261° |
| 2026-05-07 18:41 | 42.81793 | -79.43385 | 35960 ft | 391 kts | 261° |
| 2026-05-07 18:41 | 42.80978 | -79.50702 | 35961 ft | 391 kts | 261° |
| 2026-05-07 18:42 | 42.80159 | -79.58013 | 35960 ft | 391 kts | 261° |
| 2026-05-07 18:42 | 42.79336 | -79.65329 | 35960 ft | 391 kts | 261° |
| 2026-05-07 18:43 | 42.78507 | -79.72637 | 35964 ft | 391 kts | 261° |
| 2026-05-07 18:43 | 42.77832 | -79.79973 | 35961 ft | 391 kts | 263° |
| 2026-05-07 18:44 | 42.77253 | -79.87286 | 35958 ft | 391 kts | 263° |
| 2026-05-07 18:44 | 42.76653 | -79.94632 | 35959 ft | 391 kts | 263° |
| 2026-05-07 18:45 | 42.76033 | -80.01978 | 35956 ft | 391 kts | 263° |
| 2026-05-07 18:45 | 42.75509 | -80.08087 | 35957 ft | 391 kts | 263° |
| 2026-05-07 18:46 | 42.74767 | -80.16672 | 35954 ft | 391 kts | 262° |
| 2026-05-07 18:46 | 42.74128 | -80.24014 | 35950 ft | 391 kts | 262° |
| 2026-05-07 18:47 | 42.73485 | -80.31352 | 35954 ft | 391 kts | 262° |
| 2026-05-07 18:47 | 42.72864 | -80.38651 | 35893 ft | 391 kts | 264° |
| 2026-05-07 18:47 | 42.72669 | -80.42354 | 35613 ft | 390 kts | 265° |
| 2026-05-07 18:48 | 42.72529 | -80.45994 | 35361 ft | 382 kts | 266° |
| 2026-05-07 18:48 | 42.72402 | -80.49572 | 35069 ft | 376 kts | 265° |
| 2026-05-07 18:48 | 42.72269 | -80.53129 | 34855 ft | 378 kts | 265° |
| 2026-05-07 18:48 | 42.72126 | -80.56730 | 34633 ft | 383 kts | 265° |
| 2026-05-07 18:49 | 42.71973 | -80.60362 | 34412 ft | 387 kts | 265° |
| 2026-05-07 18:49 | 42.71816 | -80.64012 | 33893 ft | 386 kts | 265° |
| 2026-05-07 18:49 | 42.71658 | -80.67604 | 33322 ft | 374 kts | 265° |
| 2026-05-07 18:49 | 42.71504 | -80.71093 | 32735 ft | 364 kts | 265° |
| 2026-05-07 18:50 | 42.71352 | -80.74487 | 32152 ft | 355 kts | 264° |
| 2026-05-07 18:50 | 42.71203 | -80.77791 | 31616 ft | 348 kts | 264° |
| 2026-05-07 18:50 | 42.71054 | -80.81061 | 31055 ft | 346 kts | 264° |
| 2026-05-07 18:50 | 42.70905 | -80.84298 | 30504 ft | 350 kts | 264° |
| 2026-05-07 18:51 | 42.70800 | -80.86556 | 30122 ft | 359 kts | 264° |
| 2026-05-07 18:51 | 42.70585 | -80.91141 | 29463 ft | 371 kts | 264° |
| 2026-05-07 18:51 | 42.70420 | -80.94667 | 29186 ft | 376 kts | 264° |
| 2026-05-07 18:51 | 42.70252 | -80.98223 | 28900 ft | 376 kts | 264° |
| 2026-05-07 18:52 | 42.70086 | -81.01762 | 28615 ft | 374 kts | 264° |
| 2026-05-07 18:52 | 42.69918 | -81.05283 | 28337 ft | 373 kts | 264° |
| 2026-05-07 18:52 | 42.69805 | -81.07657 | 28148 ft | 372 kts | 264° |
| 2026-05-07 18:52 | 42.69581 | -81.12315 | 27784 ft | 372 kts | 264° |
| 2026-05-07 18:53 | 42.69468 | -81.14635 | 27607 ft | 371 kts | 264° |
| 2026-05-07 18:53 | 42.69297 | -81.18137 | 27344 ft | 371 kts | 264° |
| 2026-05-07 18:53 | 42.69125 | -81.21638 | 27084 ft | 371 kts | 264° |
| 2026-05-07 18:53 | 42.68955 | -81.25108 | 26980 ft | 360 kts | 264° |
| 2026-05-07 18:54 | 42.68791 | -81.28443 | 26805 ft | 347 kts | 263° |
| 2026-05-07 18:54 | 42.68632 | -81.31660 | 26672 ft | 334 kts | 263° |
| 2026-05-07 18:54 | 42.68476 | -81.34763 | 26498 ft | 323 kts | 263° |
| 2026-05-07 18:54 | 42.68270 | -81.37793 | 25759 ft | 319 kts | 261° |
| 2026-05-07 18:55 | 42.68015 | -81.40763 | 25235 ft | 315 kts | 261° |
| 2026-05-07 18:55 | 42.67755 | -81.43661 | 24832 ft | 312 kts | 261° |
| 2026-05-07 18:55 | 42.67493 | -81.46586 | 24427 ft | 311 kts | 261° |
| 2026-05-07 18:55 | 42.67236 | -81.49500 | 24012 ft | 311 kts | 261° |
| 2026-05-07 18:56 | 42.66981 | -81.52416 | 23612 ft | 310 kts | 261° |
| 2026-05-07 18:56 | 42.66728 | -81.55337 | 23140 ft | 313 kts | 261° |
| 2026-05-07 18:56 | 42.66469 | -81.58319 | 22698 ft | 323 kts | 261° |
| 2026-05-07 18:56 | 42.66204 | -81.61379 | 22256 ft | 326 kts | 261° |
| 2026-05-07 18:57 | 42.65941 | -81.64421 | 21832 ft | 323 kts | 261° |
| 2026-05-07 18:57 | 42.65681 | -81.67435 | 21411 ft | 319 kts | 261° |
| 2026-05-07 18:57 | 42.65423 | -81.70412 | 20996 ft | 316 kts | 261° |
| 2026-05-07 18:57 | 42.65166 | -81.73368 | 20588 ft | 313 kts | 261° |
| 2026-05-07 18:58 | 42.64910 | -81.76298 | 20174 ft | 311 kts | 261° |
| 2026-05-07 18:58 | 42.64654 | -81.79207 | 19775 ft | 309 kts | 261° |
| 2026-05-07 18:58 | 42.64400 | -81.82096 | 19271 ft | 308 kts | 261° |
| 2026-05-07 18:58 | 42.64145 | -81.84975 | 18776 ft | 302 kts | 261° |
| 2026-05-07 18:59 | 42.63898 | -81.87769 | 18341 ft | 295 kts | 261° |
| 2026-05-07 18:59 | 42.63654 | -81.90510 | 17931 ft | 289 kts | 261° |
| 2026-05-07 18:59 | 42.63412 | -81.93227 | 17570 ft | 291 kts | 262° |
| 2026-05-07 18:59 | 42.63163 | -81.95999 | 17205 ft | 303 kts | 262° |
| 2026-05-07 19:00 | 42.62902 | -81.98896 | 16803 ft | 312 kts | 262° |
| 2026-05-07 19:00 | 42.62639 | -82.01817 | 16409 ft | 310 kts | 262° |
| 2026-05-07 19:00 | 42.62383 | -82.04674 | 16030 ft | 307 kts | 262° |
| 2026-05-07 19:00 | 42.62121 | -82.07573 | 15649 ft | 304 kts | 262° |
| 2026-05-07 19:01 | 42.61865 | -82.10410 | 15262 ft | 302 kts | 262° |
| 2026-05-07 19:01 | 42.61613 | -82.13186 | 14891 ft | 299 kts | 262° |
| 2026-05-07 19:01 | 42.61358 | -82.15982 | 14521 ft | 297 kts | 262° |
| 2026-05-07 19:01 | 42.61104 | -82.18764 | 14142 ft | 296 kts | 262° |
| 2026-05-07 19:02 | 42.60852 | -82.21522 | 13778 ft | 294 kts | 262° |
| 2026-05-07 19:02 | 42.60599 | -82.24268 | 13378 ft | 292 kts | 262° |
| 2026-05-07 19:02 | 42.60429 | -82.26116 | 13102 ft | 291 kts | 262° |